sensor_id;sensor_type;location;lat;lon;timestamp;P1;durP1;ratioP1;P2;durP2;ratioP2
71763;SDS011;59602;52.142;5.408;2023-06-26T01:12:01;7.00;;;6.10;;
71763;SDS011;59602;52.142;5.408;2023-06-26T01:18:13;7.35;;;5.72;;
71763;SDS011;59602;52.142;5.408;2023-06-26T01:21:37;7.95;;;5.80;;
71763;SDS011;59602;52.142;5.408;2023-06-26T01:27:45;7.57;;;5.73;;
71763;SDS011;59602;52.142;5.408;2023-06-26T01:30:59;8.13;;;5.38;;
71763;SDS011;59602;52.142;5.408;2023-06-26T01:34:04;7.03;;;5.30;;
71763;SDS011;59602;52.142;5.408;2023-06-26T01:36:55;6.70;;;5.38;;
71763;SDS011;59602;52.142;5.408;2023-06-26T01:39:39;7.05;;;5.55;;
71763;SDS011;59602;52.142;5.408;2023-06-26T01:49:08;6.00;;;4.20;;
71763;SDS011;59602;52.142;5.408;2023-06-26T01:52:21;5.70;;;4.05;;
71763;SDS011;59602;52.142;5.408;2023-06-26T01:55:38;6.72;;;4.15;;
71763;SDS011;59602;52.142;5.408;2023-06-26T01:58:34;6.30;;;3.70;;
71763;SDS011;59602;52.142;5.408;2023-06-26T02:01:25;4.63;;;3.33;;
71763;SDS011;59602;52.142;5.408;2023-06-26T03:15:31;6.63;;;2.53;;
71763;SDS011;59602;52.142;5.408;2023-06-26T03:18:01;7.53;;;2.67;;
71763;SDS011;59602;52.142;5.408;2023-06-26T03:20:31;7.10;;;2.75;;
71763;SDS011;59602;52.142;5.408;2023-06-26T03:23:01;10.63;;;2.80;;
71763;SDS011;59602;52.142;5.408;2023-06-26T03:25:30;7.20;;;2.83;;
71763;SDS011;59602;52.142;5.408;2023-06-26T03:28:16;8.10;;;2.80;;
71763;SDS011;59602;52.142;5.408;2023-06-26T03:30:45;6.57;;;2.85;;
71763;SDS011;59602;52.142;5.408;2023-06-26T03:33:12;6.50;;;2.72;;
71763;SDS011;59602;52.142;5.408;2023-06-26T03:35:44;9.13;;;2.95;;
71763;SDS011;59602;52.142;5.408;2023-06-26T03:38:36;8.48;;;2.70;;
71763;SDS011;59602;52.142;5.408;2023-06-26T03:41:07;8.90;;;2.47;;
71763;SDS011;59602;52.142;5.408;2023-06-26T03:43:57;6.80;;;2.60;;
71763;SDS011;59602;52.142;5.408;2023-06-26T03:46:24;5.15;;;2.30;;
71763;SDS011;59602;52.142;5.408;2023-06-26T03:51:49;9.00;;;3.00;;
71763;SDS011;59602;52.142;5.408;2023-06-26T04:09:32;7.13;;;2.40;;
71763;SDS011;59602;52.142;5.408;2023-06-26T04:11:59;12.05;;;2.85;;
71763;SDS011;59602;52.142;5.408;2023-06-26T04:14:27;7.53;;;3.00;;
71763;SDS011;59602;52.142;5.408;2023-06-26T04:16:59;9.18;;;2.92;;
71763;SDS011;59602;52.142;5.408;2023-06-26T04:19:28;7.35;;;2.65;;
71763;SDS011;59602;52.142;5.408;2023-06-26T04:22:10;10.10;;;2.70;;
71763;SDS011;59602;52.142;5.408;2023-06-26T04:25:05;9.38;;;2.50;;
71763;SDS011;59602;52.142;5.408;2023-06-26T04:27:38;8.88;;;3.10;;
71763;SDS011;59602;52.142;5.408;2023-06-26T04:30:09;8.57;;;3.00;;
71763;SDS011;59602;52.142;5.408;2023-06-26T04:32:52;9.00;;;2.88;;
71763;SDS011;59602;52.142;5.408;2023-06-26T04:35:19;11.50;;;2.83;;
71763;SDS011;59602;52.142;5.408;2023-06-26T04:37:47;8.68;;;2.72;;
71763;SDS011;59602;52.142;5.408;2023-06-26T04:40:14;10.05;;;2.80;;
71763;SDS011;59602;52.142;5.408;2023-06-26T04:43:08;9.73;;;2.95;;
71763;SDS011;59602;52.142;5.408;2023-06-26T04:45:55;6.95;;;2.67;;
71763;SDS011;59602;52.142;5.408;2023-06-26T04:48:22;8.20;;;2.37;;
71763;SDS011;59602;52.142;5.408;2023-06-26T04:51:24;8.65;;;2.40;;
71763;SDS011;59602;52.142;5.408;2023-06-26T04:54:10;7.53;;;2.33;;
71763;SDS011;59602;52.142;5.408;2023-06-26T11:06:26;3.35;;;0.70;;
71763;SDS011;59602;52.142;5.408;2023-06-26T11:23:57;3.47;;;0.50;;
71763;SDS011;59602;52.142;5.408;2023-06-26T11:37:12;4.10;;;0.57;;
71763;SDS011;59602;52.142;5.408;2023-06-26T11:40:16;1.30;;;0.30;;
71763;SDS011;59602;52.142;5.408;2023-06-26T12:23:40;2.03;;;0.40;;
71763;SDS011;59602;52.142;5.408;2023-06-26T12:40:00;2.60;;;0.50;;
71763;SDS011;59602;52.142;5.408;2023-06-26T12:42:33;1.52;;;0.30;;
71763;SDS011;59602;52.142;5.408;2023-06-26T12:51:18;2.35;;;0.30;;
71763;SDS011;59602;52.142;5.408;2023-06-26T12:53:49;3.53;;;0.40;;
71763;SDS011;59602;52.142;5.408;2023-06-26T12:56:39;7.78;;;5.53;;
71763;SDS011;59602;52.142;5.408;2023-06-26T14:51:52;3.85;;;0.60;;
71763;SDS011;59602;52.142;5.408;2023-06-26T15:07:02;3.33;;;0.63;;
71763;SDS011;59602;52.142;5.408;2023-06-26T15:17:26;1.73;;;0.40;;
71763;SDS011;59602;52.142;5.408;2023-06-26T15:24:26;1.55;;;0.40;;
71763;SDS011;59602;52.142;5.408;2023-06-26T15:27:05;1.20;;;0.40;;
71763;SDS011;59602;52.142;5.408;2023-06-26T15:29:50;1.38;;;0.50;;
71763;SDS011;59602;52.142;5.408;2023-06-26T15:36:45;2.40;;;0.50;;
71763;SDS011;59602;52.142;5.408;2023-06-26T15:39:12;1.08;;;0.40;;
71763;SDS011;59602;52.142;5.408;2023-06-26T15:41:39;3.07;;;1.13;;
71763;SDS011;59602;52.142;5.408;2023-06-26T15:44:07;3.17;;;0.63;;
71763;SDS011;59602;52.142;5.408;2023-06-26T15:46:34;1.85;;;0.40;;
71763;SDS011;59602;52.142;5.408;2023-06-26T15:49:03;2.30;;;0.50;;
71763;SDS011;59602;52.142;5.408;2023-06-26T15:51:31;2.72;;;0.68;;
71763;SDS011;59602;52.142;5.408;2023-06-26T15:53:59;2.93;;;0.60;;
71763;SDS011;59602;52.142;5.408;2023-06-26T15:56:26;2.13;;;0.43;;
71763;SDS011;59602;52.142;5.408;2023-06-26T15:59:14;2.28;;;0.50;;
71763;SDS011;59602;52.142;5.408;2023-06-26T16:01:44;2.38;;;0.70;;
71763;SDS011;59602;52.142;5.408;2023-06-26T16:04:12;4.18;;;0.50;;
71763;SDS011;59602;52.142;5.408;2023-06-26T16:06:55;1.90;;;0.40;;
71763;SDS011;59602;52.142;5.408;2023-06-26T16:09:24;2.15;;;0.50;;
71763;SDS011;59602;52.142;5.408;2023-06-26T16:11:53;2.30;;;0.50;;
71763;SDS011;59602;52.142;5.408;2023-06-26T16:14:20;2.47;;;0.32;;
71763;SDS011;59602;52.142;5.408;2023-06-26T16:16:48;2.15;;;0.45;;
71763;SDS011;59602;52.142;5.408;2023-06-26T16:19:38;2.20;;;0.40;;
71763;SDS011;59602;52.142;5.408;2023-06-26T16:22:05;1.77;;;0.40;;
71763;SDS011;59602;52.142;5.408;2023-06-26T16:24:34;1.38;;;0.50;;
71763;SDS011;59602;52.142;5.408;2023-06-26T16:27:01;2.28;;;0.43;;
71763;SDS011;59602;52.142;5.408;2023-06-26T16:29:52;1.38;;;0.40;;
71763;SDS011;59602;52.142;5.408;2023-06-26T16:32:19;2.23;;;0.40;;
71763;SDS011;59602;52.142;5.408;2023-06-26T16:34:45;2.30;;;0.40;;
71763;SDS011;59602;52.142;5.408;2023-06-26T16:37:15;4.25;;;0.93;;
71763;SDS011;59602;52.142;5.408;2023-06-26T16:39:44;2.72;;;0.60;;
71763;SDS011;59602;52.142;5.408;2023-06-26T16:42:25;2.85;;;0.40;;
71763;SDS011;59602;52.142;5.408;2023-06-26T16:54:52;4.82;;;0.70;;
71763;SDS011;59602;52.142;5.408;2023-06-26T17:00:47;2.93;;;0.50;;
71763;SDS011;59602;52.142;5.408;2023-06-26T17:03:44;2.58;;;0.50;;
71763;SDS011;59602;52.142;5.408;2023-06-26T17:06:14;1.42;;;0.55;;
71763;SDS011;59602;52.142;5.408;2023-06-26T17:08:44;1.55;;;0.38;;
71763;SDS011;59602;52.142;5.408;2023-06-26T17:11:25;1.95;;;0.47;;
71763;SDS011;59602;52.142;5.408;2023-06-26T17:16:38;3.47;;;0.50;;
71763;SDS011;59602;52.142;5.408;2023-06-26T17:19:25;1.90;;;0.47;;
71763;SDS011;59602;52.142;5.408;2023-06-26T17:21:55;1.50;;;0.45;;
71763;SDS011;59602;52.142;5.408;2023-06-26T17:24:24;3.10;;;0.50;;
71763;SDS011;59602;52.142;5.408;2023-06-26T17:26:53;0.90;;;0.40;;
71763;SDS011;59602;52.142;5.408;2023-06-26T17:29:41;2.83;;;0.55;;
71763;SDS011;59602;52.142;5.408;2023-06-26T17:32:08;2.55;;;0.45;;
71763;SDS011;59602;52.142;5.408;2023-06-26T17:34:46;2.85;;;0.60;;
71763;SDS011;59602;52.142;5.408;2023-06-26T17:37:23;2.35;;;0.52;;
71763;SDS011;59602;52.142;5.408;2023-06-26T17:39:54;1.80;;;0.40;;
71763;SDS011;59602;52.142;5.408;2023-06-26T17:42:40;1.98;;;0.52;;
71763;SDS011;59602;52.142;5.408;2023-06-26T17:45:31;2.88;;;0.50;;
71763;SDS011;59602;52.142;5.408;2023-06-26T17:48:05;1.98;;;0.57;;
71763;SDS011;59602;52.142;5.408;2023-06-26T17:51:01;2.35;;;0.60;;
71763;SDS011;59602;52.142;5.408;2023-06-26T17:53:44;1.77;;;0.50;;
71763;SDS011;59602;52.142;5.408;2023-06-26T17:56:12;2.40;;;0.52;;
71763;SDS011;59602;52.142;5.408;2023-06-26T18:02:12;2.20;;;0.50;;
71763;SDS011;59602;52.142;5.408;2023-06-26T18:05:10;5.05;;;0.63;;
71763;SDS011;59602;52.142;5.408;2023-06-26T18:08:02;3.20;;;0.83;;
71763;SDS011;59602;52.142;5.408;2023-06-26T18:11:02;2.03;;;0.70;;
71763;SDS011;59602;52.142;5.408;2023-06-26T18:13:48;1.25;;;0.65;;
71763;SDS011;59602;52.142;5.408;2023-06-26T18:16:17;4.38;;;0.68;;
71763;SDS011;59602;52.142;5.408;2023-06-26T18:19:20;2.75;;;0.60;;
71763;SDS011;59602;52.142;5.408;2023-06-26T18:21:51;3.50;;;0.60;;
71763;SDS011;59602;52.142;5.408;2023-06-26T18:24:44;2.63;;;0.70;;
71763;SDS011;59602;52.142;5.408;2023-06-26T18:27:11;3.08;;;0.75;;
71763;SDS011;59602;52.142;5.408;2023-06-26T18:29:38;2.78;;;0.50;;
71763;SDS011;59602;52.142;5.408;2023-06-26T18:32:05;3.15;;;0.90;;
71763;SDS011;59602;52.142;5.408;2023-06-26T18:34:32;4.27;;;1.20;;
71763;SDS011;59602;52.142;5.408;2023-06-26T18:36:59;2.83;;;0.70;;
71763;SDS011;59602;52.142;5.408;2023-06-26T18:39:25;2.55;;;0.75;;
71763;SDS011;59602;52.142;5.408;2023-06-26T18:42:08;3.10;;;0.50;;
71763;SDS011;59602;52.142;5.408;2023-06-26T18:44:54;2.45;;;0.60;;
71763;SDS011;59602;52.142;5.408;2023-06-26T18:47:21;1.63;;;0.50;;
71763;SDS011;59602;52.142;5.408;2023-06-26T18:49:50;3.78;;;0.50;;
71763;SDS011;59602;52.142;5.408;2023-06-26T18:52:20;3.10;;;0.50;;
71763;SDS011;59602;52.142;5.408;2023-06-26T18:54:47;2.42;;;0.60;;
71763;SDS011;59602;52.142;5.408;2023-06-26T18:57:14;3.55;;;0.60;;
71763;SDS011;59602;52.142;5.408;2023-06-26T18:59:40;2.17;;;0.60;;
71763;SDS011;59602;52.142;5.408;2023-06-26T19:02:07;3.33;;;0.70;;
71763;SDS011;59602;52.142;5.408;2023-06-26T19:04:34;2.72;;;0.52;;
71763;SDS011;59602;52.142;5.408;2023-06-26T19:07:01;3.75;;;0.80;;
71763;SDS011;59602;52.142;5.408;2023-06-26T19:09:28;2.03;;;0.55;;
71763;SDS011;59602;52.142;5.408;2023-06-26T19:11:57;2.63;;;0.80;;
71763;SDS011;59602;52.142;5.408;2023-06-26T19:14:25;2.55;;;0.40;;
71763;SDS011;59602;52.142;5.408;2023-06-26T19:16:52;3.38;;;0.60;;
71763;SDS011;59602;52.142;5.408;2023-06-26T19:19:21;2.50;;;0.52;;
71763;SDS011;59602;52.142;5.408;2023-06-26T19:21:48;2.38;;;0.60;;
71763;SDS011;59602;52.142;5.408;2023-06-26T19:24:14;1.53;;;0.70;;
71763;SDS011;59602;52.142;5.408;2023-06-26T19:26:44;2.97;;;0.70;;
71763;SDS011;59602;52.142;5.408;2023-06-26T19:29:10;2.85;;;0.77;;
71763;SDS011;59602;52.142;5.408;2023-06-26T19:31:37;4.70;;;0.85;;
71763;SDS011;59602;52.142;5.408;2023-06-26T19:34:04;3.25;;;0.50;;
71763;SDS011;59602;52.142;5.408;2023-06-26T19:36:32;1.83;;;0.57;;
71763;SDS011;59602;52.142;5.408;2023-06-26T19:38:58;2.70;;;0.70;;
71763;SDS011;59602;52.142;5.408;2023-06-26T19:41:25;2.13;;;0.73;;
71763;SDS011;59602;52.142;5.408;2023-06-26T19:43:51;3.55;;;0.70;;
71763;SDS011;59602;52.142;5.408;2023-06-26T19:46:18;3.03;;;0.65;;
71763;SDS011;59602;52.142;5.408;2023-06-26T19:48:45;3.47;;;0.60;;
71763;SDS011;59602;52.142;5.408;2023-06-26T19:51:11;2.55;;;0.50;;
71763;SDS011;59602;52.142;5.408;2023-06-26T19:53:38;3.47;;;0.65;;
71763;SDS011;59602;52.142;5.408;2023-06-26T19:56:04;4.68;;;0.70;;
71763;SDS011;59602;52.142;5.408;2023-06-26T19:58:31;6.20;;;0.70;;
71763;SDS011;59602;52.142;5.408;2023-06-26T20:00:58;2.97;;;0.50;;
71763;SDS011;59602;52.142;5.408;2023-06-26T20:03:26;3.65;;;0.88;;
71763;SDS011;59602;52.142;5.408;2023-06-26T20:15:55;3.67;;;0.90;;
71763;SDS011;59602;52.142;5.408;2023-06-26T20:18:23;1.80;;;0.52;;
71763;SDS011;59602;52.142;5.408;2023-06-26T20:20:51;4.13;;;0.70;;
71763;SDS011;59602;52.142;5.408;2023-06-26T20:23:18;3.88;;;0.70;;
71763;SDS011;59602;52.142;5.408;2023-06-26T20:25:44;3.42;;;0.65;;
71763;SDS011;59602;52.142;5.408;2023-06-26T20:28:11;5.20;;;0.90;;
71763;SDS011;59602;52.142;5.408;2023-06-26T20:30:38;3.25;;;0.70;;
71763;SDS011;59602;52.142;5.408;2023-06-26T20:33:04;4.85;;;0.75;;
71763;SDS011;59602;52.142;5.408;2023-06-26T20:35:31;4.03;;;0.85;;
71763;SDS011;59602;52.142;5.408;2023-06-26T20:37:58;2.25;;;0.60;;
71763;SDS011;59602;52.142;5.408;2023-06-26T20:40:27;3.93;;;1.00;;
71763;SDS011;59602;52.142;5.408;2023-06-26T20:42:55;4.13;;;0.80;;
71763;SDS011;59602;52.142;5.408;2023-06-26T20:45:22;2.85;;;0.90;;
71763;SDS011;59602;52.142;5.408;2023-06-26T20:47:50;5.22;;;0.70;;
71763;SDS011;59602;52.142;5.408;2023-06-26T20:50:17;3.42;;;0.68;;
71763;SDS011;59602;52.142;5.408;2023-06-26T20:52:44;3.17;;;0.80;;
71763;SDS011;59602;52.142;5.408;2023-06-26T20:55:12;2.75;;;0.80;;
71763;SDS011;59602;52.142;5.408;2023-06-26T20:57:39;1.45;;;0.52;;
71763;SDS011;59602;52.142;5.408;2023-06-26T21:00:07;4.10;;;0.65;;
71763;SDS011;59602;52.142;5.408;2023-06-26T21:02:36;4.10;;;0.75;;
71763;SDS011;59602;52.142;5.408;2023-06-26T21:05:02;6.00;;;0.90;;
71763;SDS011;59602;52.142;5.408;2023-06-26T21:07:30;2.67;;;0.60;;
71763;SDS011;59602;52.142;5.408;2023-06-26T21:09:57;3.20;;;0.60;;
71763;SDS011;59602;52.142;5.408;2023-06-26T21:12:25;3.75;;;0.80;;
71763;SDS011;59602;52.142;5.408;2023-06-26T21:14:54;2.22;;;0.60;;
71763;SDS011;59602;52.142;5.408;2023-06-26T21:17:21;4.03;;;0.80;;
71763;SDS011;59602;52.142;5.408;2023-06-26T21:19:48;2.33;;;0.70;;
71763;SDS011;59602;52.142;5.408;2023-06-26T21:22:14;2.35;;;0.75;;
71763;SDS011;59602;52.142;5.408;2023-06-26T21:24:44;4.65;;;0.63;;
71763;SDS011;59602;52.142;5.408;2023-06-26T21:27:11;2.72;;;0.75;;
71763;SDS011;59602;52.142;5.408;2023-06-26T21:29:37;2.90;;;0.70;;
71763;SDS011;59602;52.142;5.408;2023-06-26T21:32:04;3.92;;;0.68;;
71763;SDS011;59602;52.142;5.408;2023-06-26T21:34:31;3.05;;;0.60;;
71763;SDS011;59602;52.142;5.408;2023-06-26T21:36:58;3.40;;;1.00;;
71763;SDS011;59602;52.142;5.408;2023-06-26T21:39:25;2.65;;;0.60;;
71763;SDS011;59602;52.142;5.408;2023-06-26T21:41:51;3.37;;;0.70;;
71763;SDS011;59602;52.142;5.408;2023-06-26T21:44:18;3.03;;;0.80;;
71763;SDS011;59602;52.142;5.408;2023-06-26T21:46:45;4.03;;;1.02;;
71763;SDS011;59602;52.142;5.408;2023-06-26T21:49:11;3.78;;;0.80;;
71763;SDS011;59602;52.142;5.408;2023-06-26T21:51:38;3.25;;;0.73;;
71763;SDS011;59602;52.142;5.408;2023-06-26T21:54:04;4.03;;;0.67;;
71763;SDS011;59602;52.142;5.408;2023-06-26T21:56:31;4.25;;;1.05;;
71763;SDS011;59602;52.142;5.408;2023-06-26T21:58:58;2.35;;;0.70;;
71763;SDS011;59602;52.142;5.408;2023-06-26T22:01:24;5.25;;;1.00;;
71763;SDS011;59602;52.142;5.408;2023-06-26T22:03:51;2.28;;;0.80;;
71763;SDS011;59602;52.142;5.408;2023-06-26T22:06:18;3.00;;;0.70;;
71763;SDS011;59602;52.142;5.408;2023-06-26T22:08:44;2.30;;;0.70;;
71763;SDS011;59602;52.142;5.408;2023-06-26T22:11:11;3.22;;;0.82;;
71763;SDS011;59602;52.142;5.408;2023-06-26T22:13:38;3.05;;;0.80;;
71763;SDS011;59602;52.142;5.408;2023-06-26T22:16:05;3.05;;;0.80;;
71763;SDS011;59602;52.142;5.408;2023-06-26T22:18:32;3.57;;;0.70;;
71763;SDS011;59602;52.142;5.408;2023-06-26T22:20:59;4.75;;;0.80;;
71763;SDS011;59602;52.142;5.408;2023-06-26T22:23:25;4.43;;;0.90;;
71763;SDS011;59602;52.142;5.408;2023-06-26T22:25:52;2.75;;;0.68;;
71763;SDS011;59602;52.142;5.408;2023-06-26T22:28:19;3.35;;;0.85;;
71763;SDS011;59602;52.142;5.408;2023-06-26T22:30:45;2.63;;;0.90;;
71763;SDS011;59602;52.142;5.408;2023-06-26T22:33:12;2.75;;;0.68;;
71763;SDS011;59602;52.142;5.408;2023-06-26T22:35:39;2.10;;;0.63;;
71763;SDS011;59602;52.142;5.408;2023-06-26T22:38:07;4.20;;;0.80;;
71763;SDS011;59602;52.142;5.408;2023-06-26T22:40:34;4.15;;;1.20;;
71763;SDS011;59602;52.142;5.408;2023-06-26T22:43:01;2.47;;;0.80;;
71763;SDS011;59602;52.142;5.408;2023-06-26T22:45:32;4.28;;;0.88;;
71763;SDS011;59602;52.142;5.408;2023-06-26T22:47:59;4.07;;;0.95;;
71763;SDS011;59602;52.142;5.408;2023-06-26T22:50:26;3.38;;;1.02;;
71763;SDS011;59602;52.142;5.408;2023-06-26T22:52:53;3.08;;;0.80;;
71763;SDS011;59602;52.142;5.408;2023-06-26T22:55:20;3.07;;;0.90;;
71763;SDS011;59602;52.142;5.408;2023-06-26T22:57:47;4.25;;;0.90;;
71763;SDS011;59602;52.142;5.408;2023-06-26T23:00:14;2.95;;;0.90;;
71763;SDS011;59602;52.142;5.408;2023-06-26T23:02:41;4.63;;;1.42;;
71763;SDS011;59602;52.142;5.408;2023-06-26T23:05:08;7.57;;;1.48;;
71763;SDS011;59602;52.142;5.408;2023-06-26T23:07:36;4.10;;;0.90;;
71763;SDS011;59602;52.142;5.408;2023-06-26T23:10:03;2.65;;;0.98;;
71763;SDS011;59602;52.142;5.408;2023-06-26T23:12:31;5.15;;;1.52;;
71763;SDS011;59602;52.142;5.408;2023-06-26T23:14:58;3.45;;;1.08;;
71763;SDS011;59602;52.142;5.408;2023-06-26T23:17:24;6.10;;;1.10;;
71763;SDS011;59602;52.142;5.408;2023-06-26T23:19:52;3.70;;;1.40;;
71763;SDS011;59602;52.142;5.408;2023-06-26T23:22:18;5.00;;;0.90;;
71763;SDS011;59602;52.142;5.408;2023-06-26T23:24:46;4.38;;;1.30;;
71763;SDS011;59602;52.142;5.408;2023-06-26T23:27:14;3.17;;;1.05;;
71763;SDS011;59602;52.142;5.408;2023-06-26T23:29:40;3.72;;;1.10;;
71763;SDS011;59602;52.142;5.408;2023-06-26T23:32:08;4.33;;;1.20;;
71763;SDS011;59602;52.142;5.408;2023-06-26T23:34:37;3.30;;;1.00;;
71763;SDS011;59602;52.142;5.408;2023-06-26T23:37:06;4.18;;;1.20;;
71763;SDS011;59602;52.142;5.408;2023-06-26T23:39:35;2.70;;;1.05;;
71763;SDS011;59602;52.142;5.408;2023-06-26T23:42:05;3.53;;;1.00;;
71763;SDS011;59602;52.142;5.408;2023-06-26T23:44:33;4.27;;;1.03;;
71763;SDS011;59602;52.142;5.408;2023-06-26T23:47:00;4.57;;;1.52;;
71763;SDS011;59602;52.142;5.408;2023-06-26T23:49:30;4.10;;;1.10;;
71763;SDS011;59602;52.142;5.408;2023-06-26T23:51:57;5.68;;;1.42;;
71763;SDS011;59602;52.142;5.408;2023-06-26T23:54:24;3.50;;;1.30;;
71763;SDS011;59602;52.142;5.408;2023-06-26T23:56:51;3.43;;;1.03;;
71763;SDS011;59602;52.142;5.408;2023-06-26T23:59:18;5.10;;;1.45;;
